Flight Track Log - Related Links

Times and Time Zones

All times are in EST time to prevent confusion due to time zone crossing. See the BOE1 flight status page for this flight to view local times or setup timezone preferences in your user account.

Time Position Orientation Groundspeed Altitude Reporting Facility
EST Latitude Longitude Course Direction KTS MPH feet Rate Location/Type
Wed 03:42:32 PM 47.3672 -119.1300 171° South 238 274 10,000  Level Seattle Center
Wed 03:43:32 PM 47.3047 -119.1160 171° South 238 274 10,000  Level Seattle Center
Wed 03:44:32 PM 47.2922 -119.1130 250° West 238 274 10,000 80 Level Seattle Center
Wed 03:47:32 PM 47.2019 -119.4070 268° West 16,000 100 Climbing Seattle Center
Wed 03:48:32 PM 47.2000 -119.4930 293° West 210 242 10,400 -1,350 Descending Seattle Center
Wed 03:49:32 PM 47.2294 -119.5930 292° West 236 272 13,300 2,750 Climbing Seattle Center
Wed 03:50:32 PM 47.2586 -119.7000 291° West 266 306 15,900 1,350 Climbing Seattle Center
Wed 03:51:32 PM 47.2858 -119.8040 298° West 271 312 16,000 100 Climbing Seattle Center
Wed 03:52:32 PM 47.3211 -119.9020 356° North 276 318 16,100 100 Climbing Seattle Center
Wed 03:53:32 PM 47.4022 -119.9110 311° West 248 285 16,200 50 Climbing Seattle Center
Wed 03:54:32 PM 47.4500 -119.9910 22° Northeast 253 291 16,200  Level Seattle Center
Wed 03:55:32 PM 47.5311 -119.9420 295° West 239 275 16,200  Level Seattle Center
Wed 03:56:32 PM 47.5622 -120.0410 285° West 218 251 16,200 -50 Level Seattle Center
Wed 03:57:32 PM 47.5828 -120.1550 284° West 247 284 16,100 -100 Descending Seattle Center
Wed 03:58:32 PM 47.6011 -120.2620 287° West 260 299 16,000 -250 Descending Seattle Center
Wed 03:59:32 PM 47.6233 -120.3700 281° West 271 312 15,600  Descending Seattle Center
Wed 04:00:32 PM 47.6375 -120.4840 283° West 276 318 16,000 200 Climbing Seattle Center
Wed 04:01:32 PM 47.6553 -120.5950 286° West 281 323 16,000  Level Seattle Center
Wed 04:02:32 PM 47.6756 -120.7000 293° West 276 318 16,000  Level Seattle Center
Wed 04:03:32 PM 47.7039 -120.7990 269° West 276 318 16,000  Level Seattle Center
Wed 04:04:32 PM 47.7028 -120.9070 286° West 260 299 16,000 100 Level Seattle Center
Wed 04:05:32 PM 47.7225 -121.0120 296° West 260 299 16,200 200 Climbing Seattle Center
Wed 04:06:32 PM 47.7547 -121.1120 294° West 260 299 16,400 150 Climbing Seattle Center
Wed 04:07:32 PM 47.7847 -121.2110 296° West 265 305 16,500 -350 Climbing Seattle Center
Wed 04:08:32 PM 47.8169 -121.3080 North 270 311 15,700 -1,100 Descending Seattle Center
Wed 04:09:32 PM 47.8919 -121.3010 North 228 262 14,300 -1,200 Descending Seattle Center
Wed 04:10:32 PM 47.9689 -121.2940 323° Northwest 245 282 13,300 -1,050 Descending Seattle Center
Wed 04:11:32 PM 48.0222 -121.3540 281° West 252 290 12,200 -1,150 Descending Seattle Center
Wed 04:12:32 PM 48.0353 -121.4570 283° West 221 254 11,000 -1,100 Descending Seattle Center
Wed 04:13:32 PM 48.0506 -121.5570 283° West 227 261 10,000 -950 Descending Seattle Center
Wed 04:14:32 PM 48.0656 -121.6560 282° West 246 283 9,100 -500 Descending Seattle Center
Wed 04:15:32 PM 48.0806 -121.7590 281° West 251 289 9,000 -250 Descending Seattle Center
Wed 04:16:32 PM 48.0936 -121.8590 282° West 251 289 8,600 -500 Descending Seattle Center
Wed 04:17:32 PM 48.1083 -121.9620 282° West 256 295 8,000 -1,350 Descending Seattle Center
Wed 04:18:32 PM 48.1231 -122.0650 282° West 250 288 5,900 -1,500 Descending Seattle Center
Wed 04:19:32 PM 48.1358 -122.1530 280° West 232 267 5,000 -850 Descending Seattle Center
Wed 04:20:32 PM 48.1447 -122.2280 230° Southwest 215 247 4,200 -1,000 Descending Seattle Center
Wed 04:21:32 PM 48.1211 -122.2700 199° South 156 180 3,000 -600 Descending Seattle Center
Wed 04:22:32 PM 48.0831 -122.2900 178° South 140 161 3,000 -50 Level Seattle Center
Wed 04:23:32 PM 48.0436 -122.2880 181° South 130 150 2,900 -400 Descending Seattle Center
Wed 04:24:32 PM 48.0061 -122.2890 179° South 130 150 2,200 -700 Descending Seattle Center
Wed 04:25:32 PM 47.9708 -122.2880 181° South 136 157 1,500 -700 Descending Seattle Center
Wed 04:26:32 PM 47.9314 -122.2890 175° South 136 157 800 -50 Descending Seattle Center
Wed 04:27:32 PM 47.8939 -122.2840 183° South 141 162 1,400 1,100 Climbing Seattle Center
Wed 04:28:32 PM 47.8481 -122.2880 296° West 154 177 3,000 800 Climbing Seattle Center
Wed 04:29:32 PM 47.8675 -122.3480 327° Northwest 118 136 3,000  Level Seattle Center
Wed 04:30:32 PM 47.9103 -122.3900 352° North 131 151 3,000  Level Seattle Center
Wed 04:31:32 PM 47.9642 -122.4020 349° North 152 175 3,000  Level Seattle Center
Wed 04:32:32 PM 48.0181 -122.4170 351° North 178 205 3,000  Level Seattle Center
Wed 04:33:32 PM 48.0717 -122.4290 34° Northeast 192 221 3,000  Level Seattle Center
Wed 04:34:32 PM 48.1058 -122.3940 93° East 160 184 3,000  Level Seattle Center
Wed 04:35:32 PM 48.1031 -122.3250 139° Southeast 125 144 3,000  Level Seattle Center
Wed 04:36:32 PM 48.0728 -122.2860 182° South 120 138 3,000 -150 Level Seattle Center
Wed 04:37:32 PM 48.0333 -122.2880 181° South 111 128 2,700 -500 Descending Seattle Center
Wed 04:38:32 PM 47.9936 -122.2890 178° South 130 150 2,000 -700 Descending Seattle Center
Wed 04:39:32 PM 47.9542 -122.2870 181° South 142 163 1,300 -600 Descending Seattle Center
Wed 04:40:32 PM 47.9106 -122.2880 181° South 142 163 800 -500 Descending Seattle Center

Login

Don't have an account? Register now (free) for customized features, flight alerts, and more!